sensor_id;sensor_type;location;lat;lon;timestamp;temperature;humidity
610;DHT22;292;48.800;9.216;2023-03-14T00:20:29;12.50;83.80
610;DHT22;292;48.800;9.216;2023-03-14T00:22:56;12.50;83.90
610;DHT22;292;48.800;9.216;2023-03-14T00:25:25;12.50;83.80
610;DHT22;292;48.800;9.216;2023-03-14T00:27:52;12.50;83.80
610;DHT22;292;48.800;9.216;2023-03-14T00:30:19;12.50;83.80
610;DHT22;292;48.800;9.216;2023-03-14T00:32:49;12.50;83.60
610;DHT22;292;48.800;9.216;2023-03-14T00:35:36;12.50;83.50
610;DHT22;292;48.800;9.216;2023-03-14T00:38:03;12.50;83.50
610;DHT22;292;48.800;9.216;2023-03-14T00:40:30;12.50;83.40
610;DHT22;292;48.800;9.216;2023-03-14T00:43:01;12.50;83.40
610;DHT22;292;48.800;9.216;2023-03-14T00:45:28;12.50;83.40
610;DHT22;292;48.800;9.216;2023-03-14T00:47:55;12.50;83.40
610;DHT22;292;48.800;9.216;2023-03-14T00:50:22;12.50;83.40
610;DHT22;292;48.800;9.216;2023-03-14T00:52:51;12.60;83.40
610;DHT22;292;48.800;9.216;2023-03-14T00:55:18;12.60;83.10
610;DHT22;292;48.800;9.216;2023-03-14T00:57:45;12.60;82.90
610;DHT22;292;48.800;9.216;2023-03-14T01:00:13;12.70;82.80
610;DHT22;292;48.800;9.216;2023-03-14T01:02:41;12.70;82.60
610;DHT22;292;48.800;9.216;2023-03-14T01:05:08;12.70;82.50
610;DHT22;292;48.800;9.216;2023-03-14T01:07:36;12.70;82.40
610;DHT22;292;48.800;9.216;2023-03-14T01:10:06;12.80;82.20
610;DHT22;292;48.800;9.216;2023-03-14T01:12:34;12.80;82.00
610;DHT22;292;48.800;9.216;2023-03-14T01:15:01;12.80;81.90
610;DHT22;292;48.800;9.216;2023-03-14T01:17:29;12.80;81.70
610;DHT22;292;48.800;9.216;2023-03-14T01:19:59;12.80;81.60
610;DHT22;292;48.800;9.216;2023-03-14T01:37:00;12.80;81.60
610;DHT22;292;48.800;9.216;2023-03-14T01:39:28;12.80;81.40
610;DHT22;292;48.800;9.216;2023-03-14T01:41:55;12.80;81.30
610;DHT22;292;48.800;9.216;2023-03-14T01:44:23;12.80;81.20
610;DHT22;292;48.800;9.216;2023-03-14T01:46:50;12.80;81.00
610;DHT22;292;48.800;9.216;2023-03-14T01:49:22;12.80;80.90
610;DHT22;292;48.800;9.216;2023-03-14T01:51:54;12.80;80.60
610;DHT22;292;48.800;9.216;2023-03-14T01:54:30;12.90;80.40
610;DHT22;292;48.800;9.216;2023-03-14T01:57:06;12.90;80.10
610;DHT22;292;48.800;9.216;2023-03-14T02:00:04;12.80;80.10
610;DHT22;292;48.800;9.216;2023-03-14T02:02:38;12.90;79.70
610;DHT22;292;48.800;9.216;2023-03-14T02:05:08;12.80;79.90
610;DHT22;292;48.800;9.216;2023-03-14T02:07:39;12.80;79.70
610;DHT22;292;48.800;9.216;2023-03-14T02:10:12;12.80;79.30
610;DHT22;292;48.800;9.216;2023-03-14T02:12:41;12.80;79.10
610;DHT22;292;48.800;9.216;2023-03-14T02:15:09;12.80;78.70
610;DHT22;292;48.800;9.216;2023-03-14T02:17:46;12.80;78.70
610;DHT22;292;48.800;9.216;2023-03-14T03:08:22;12.60;78.60
610;DHT22;292;48.800;9.216;2023-03-14T03:10:49;12.60;78.40
610;DHT22;292;48.800;9.216;2023-03-14T03:13:18;12.60;78.40
610;DHT22;292;48.800;9.216;2023-03-14T03:15:45;12.60;78.60
610;DHT22;292;48.800;9.216;2023-03-14T03:18:13;12.60;78.40
610;DHT22;292;48.800;9.216;2023-03-14T03:20:40;12.60;78.30
610;DHT22;292;48.800;9.216;2023-03-14T03:23:10;12.60;78.10
610;DHT22;292;48.800;9.216;2023-03-14T03:25:41;12.60;77.50
610;DHT22;292;48.800;9.216;2023-03-14T03:28:09;12.60;77.30
610;DHT22;292;48.800;9.216;2023-03-14T03:30:38;12.60;77.10
610;DHT22;292;48.800;9.216;2023-03-14T03:33:06;12.60;76.80
610;DHT22;292;48.800;9.216;2023-03-14T03:35:33;12.70;76.70
610;DHT22;292;48.800;9.216;2023-03-14T03:38:00;12.70;76.40
610;DHT22;292;48.800;9.216;2023-03-14T03:40:30;12.70;76.10
610;DHT22;292;48.800;9.216;2023-03-14T03:55:27;12.70;74.80
610;DHT22;292;48.800;9.216;2023-03-14T03:57:54;12.70;74.70
610;DHT22;292;48.800;9.216;2023-03-14T04:00:22;12.70;74.40
610;DHT22;292;48.800;9.216;2023-03-14T04:02:49;12.60;74.10
610;DHT22;292;48.800;9.216;2023-03-14T04:05:16;12.60;73.80
610;DHT22;292;48.800;9.216;2023-03-14T04:07:44;12.70;73.80
610;DHT22;292;48.800;9.216;2023-03-14T04:10:12;12.60;73.40
610;DHT22;292;48.800;9.216;2023-03-14T04:12:43;12.60;72.80
610;DHT22;292;48.800;9.216;2023-03-14T04:15:10;12.60;72.60
610;DHT22;292;48.800;9.216;2023-03-14T04:17:39;12.60;72.20
610;DHT22;292;48.800;9.216;2023-03-14T04:20:09;12.50;72.10
610;DHT22;292;48.800;9.216;2023-03-14T04:22:37;12.60;71.80
610;DHT22;292;48.800;9.216;2023-03-14T04:25:06;12.60;71.30
610;DHT22;292;48.800;9.216;2023-03-14T04:27:33;12.60;71.20
610;DHT22;292;48.800;9.216;2023-03-14T04:30:02;12.60;70.90
610;DHT22;292;48.800;9.216;2023-03-14T04:32:30;12.60;70.80
610;DHT22;292;48.800;9.216;2023-03-14T04:34:57;12.50;70.60
610;DHT22;292;48.800;9.216;2023-03-14T04:37:24;12.50;70.50
610;DHT22;292;48.800;9.216;2023-03-14T04:39:51;12.50;70.30
610;DHT22;292;48.800;9.216;2023-03-14T04:42:18;12.50;70.20
610;DHT22;292;48.800;9.216;2023-03-14T04:44:46;12.50;70.00
610;DHT22;292;48.800;9.216;2023-03-14T04:47:16;12.50;69.80
610;DHT22;292;48.800;9.216;2023-03-14T04:49:44;12.40;69.90
610;DHT22;292;48.800;9.216;2023-03-14T04:52:10;12.50;69.90
610;DHT22;292;48.800;9.216;2023-03-14T04:54:39;12.40;69.60
610;DHT22;292;48.800;9.216;2023-03-14T04:57:05;12.40;69.60
610;DHT22;292;48.800;9.216;2023-03-14T04:59:33;12.40;69.60
610;DHT22;292;48.800;9.216;2023-03-14T05:02:00;12.40;69.60
610;DHT22;292;48.800;9.216;2023-03-14T05:04:29;12.50;69.50
610;DHT22;292;48.800;9.216;2023-03-14T05:06:58;12.40;69.50
610;DHT22;292;48.800;9.216;2023-03-14T05:09:26;12.40;69.50
610;DHT22;292;48.800;9.216;2023-03-14T05:11:53;12.40;69.30
610;DHT22;292;48.800;9.216;2023-03-14T05:14:20;12.40;69.30
610;DHT22;292;48.800;9.216;2023-03-14T05:16:47;12.40;69.30
610;DHT22;292;48.800;9.216;2023-03-14T05:19:14;12.40;69.20
610;DHT22;292;48.800;9.216;2023-03-14T05:21:43;12.30;69.50
610;DHT22;292;48.800;9.216;2023-03-14T05:24:10;12.30;69.80
610;DHT22;292;48.800;9.216;2023-03-14T05:26:38;12.30;69.80
610;DHT22;292;48.800;9.216;2023-03-14T05:29:18;12.30;69.90
610;DHT22;292;48.800;9.216;2023-03-14T05:31:45;12.30;69.90
610;DHT22;292;48.800;9.216;2023-03-14T05:34:13;12.30;69.90
610;DHT22;292;48.800;9.216;2023-03-14T05:36:39;12.20;69.90
610;DHT22;292;48.800;9.216;2023-03-14T05:39:09;12.30;69.90
610;DHT22;292;48.800;9.216;2023-03-14T05:41:38;12.20;69.90
610;DHT22;292;48.800;9.216;2023-03-14T05:44:06;12.20;69.90
610;DHT22;292;48.800;9.216;2023-03-14T05:46:33;12.20;69.80
610;DHT22;292;48.800;9.216;2023-03-14T05:49:00;12.20;69.90
610;DHT22;292;48.800;9.216;2023-03-14T05:51:29;12.20;69.90
610;DHT22;292;48.800;9.216;2023-03-14T05:53:56;12.20;69.80
610;DHT22;292;48.800;9.216;2023-03-14T05:56:27;12.20;69.80
610;DHT22;292;48.800;9.216;2023-03-14T05:58:54;12.20;69.90
610;DHT22;292;48.800;9.216;2023-03-14T06:01:21;12.10;69.90
610;DHT22;292;48.800;9.216;2023-03-14T06:03:48;12.10;70.00
610;DHT22;292;48.800;9.216;2023-03-14T06:06:15;12.10;69.90
610;DHT22;292;48.800;9.216;2023-03-14T06:08:43;12.10;69.90
610;DHT22;292;48.800;9.216;2023-03-14T06:11:11;12.10;69.60
610;DHT22;292;48.800;9.216;2023-03-14T06:13:40;12.10;69.60
610;DHT22;292;48.800;9.216;2023-03-14T06:16:08;12.10;69.60
610;DHT22;292;48.800;9.216;2023-03-14T06:18:35;12.10;69.60
610;DHT22;292;48.800;9.216;2023-03-14T06:21:02;12.20;69.50
610;DHT22;292;48.800;9.216;2023-03-14T06:23:31;12.20;69.50
610;DHT22;292;48.800;9.216;2023-03-14T06:25:59;12.20;69.20
610;DHT22;292;48.800;9.216;2023-03-14T06:28:26;12.30;69.00
610;DHT22;292;48.800;9.216;2023-03-14T06:30:56;12.30;69.00
610;DHT22;292;48.800;9.216;2023-03-14T06:33:24;12.30;69.00
610;DHT22;292;48.800;9.216;2023-03-14T06:35:52;12.30;68.90
610;DHT22;292;48.800;9.216;2023-03-14T06:38:19;12.30;68.70
610;DHT22;292;48.800;9.216;2023-03-14T06:40:48;12.30;68.60
610;DHT22;292;48.800;9.216;2023-03-14T06:43:15;12.30;68.60
610;DHT22;292;48.800;9.216;2023-03-14T06:45:42;12.30;68.60
610;DHT22;292;48.800;9.216;2023-03-14T06:48:16;12.30;68.60
610;DHT22;292;48.800;9.216;2023-03-14T06:50:46;12.30;68.60
610;DHT22;292;48.800;9.216;2023-03-14T06:53:14;12.30;68.60
610;DHT22;292;48.800;9.216;2023-03-14T06:55:41;12.30;68.60
610;DHT22;292;48.800;9.216;2023-03-14T06:58:09;12.30;68.60
610;DHT22;292;48.800;9.216;2023-03-14T07:00:37;12.30;68.30
610;DHT22;292;48.800;9.216;2023-03-14T07:03:04;12.40;68.20
610;DHT22;292;48.800;9.216;2023-03-14T07:05:32;12.40;68.20
610;DHT22;292;48.800;9.216;2023-03-14T07:08:00;12.40;67.70
610;DHT22;292;48.800;9.216;2023-03-14T07:10:28;12.50;67.60
610;DHT22;292;48.800;9.216;2023-03-14T07:12:55;12.50;67.30
610;DHT22;292;48.800;9.216;2023-03-14T07:15:22;12.60;67.30
610;DHT22;292;48.800;9.216;2023-03-14T07:17:49;12.60;67.20
610;DHT22;292;48.800;9.216;2023-03-14T07:20:18;12.70;67.20
610;DHT22;292;48.800;9.216;2023-03-14T07:22:50;12.70;67.00
610;DHT22;292;48.800;9.216;2023-03-14T07:25:17;12.80;66.70
610;DHT22;292;48.800;9.216;2023-03-14T07:27:45;12.90;66.30
610;DHT22;292;48.800;9.216;2023-03-14T07:30:13;12.90;66.20
610;DHT22;292;48.800;9.216;2023-03-14T07:32:45;13.00;66.00
610;DHT22;292;48.800;9.216;2023-03-14T07:35:13;13.00;65.60
610;DHT22;292;48.800;9.216;2023-03-14T07:40:46;13.10;65.00
610;DHT22;292;48.800;9.216;2023-03-14T07:43:15;13.10;64.60
610;DHT22;292;48.800;9.216;2023-03-14T08:20:55;14.10;62.30
610;DHT22;292;48.800;9.216;2023-03-14T08:27:24;14.30;61.50
610;DHT22;292;48.800;9.216;2023-03-14T08:32:56;14.40;60.70
610;DHT22;292;48.800;9.216;2023-03-14T08:33:19;14.50;60.10
610;DHT22;292;48.800;9.216;2023-03-14T08:55:53;15.40;55.00
610;DHT22;292;48.800;9.216;2023-03-14T09:07:54;15.60;53.70
610;DHT22;292;48.800;9.216;2023-03-14T09:10:21;15.60;54.10
610;DHT22;292;48.800;9.216;2023-03-14T09:12:50;15.60;54.20
610;DHT22;292;48.800;9.216;2023-03-14T09:15:18;15.60;54.60
610;DHT22;292;48.800;9.216;2023-03-14T09:17:46;15.60;54.40
610;DHT22;292;48.800;9.216;2023-03-14T09:20:15;15.50;54.40
610;DHT22;292;48.800;9.216;2023-03-14T09:22:49;15.40;55.00
610;DHT22;292;48.800;9.216;2023-03-14T10:01:04;15.30;56.50
610;DHT22;292;48.800;9.216;2023-03-14T10:03:32;15.30;56.50
610;DHT22;292;48.800;9.216;2023-03-14T10:06:00;15.30;56.20
610;DHT22;292;48.800;9.216;2023-03-14T10:08:27;15.20;56.00
610;DHT22;292;48.800;9.216;2023-03-14T10:10:54;15.20;56.00
610;DHT22;292;48.800;9.216;2023-03-14T10:13:23;15.10;56.00
610;DHT22;292;48.800;9.216;2023-03-14T10:15:53;15.10;56.10
610;DHT22;292;48.800;9.216;2023-03-14T10:18:23;15.10;56.20
610;DHT22;292;48.800;9.216;2023-03-14T10:21:02;15.00;56.20
610;DHT22;292;48.800;9.216;2023-03-14T10:23:32;15.00;56.20
610;DHT22;292;48.800;9.216;2023-03-14T10:26:06;15.00;56.40
610;DHT22;292;48.800;9.216;2023-03-14T10:28:37;15.10;56.50
610;DHT22;292;48.800;9.216;2023-03-14T10:31:06;15.20;56.50
610;DHT22;292;48.800;9.216;2023-03-14T10:33:36;15.30;56.10
610;DHT22;292;48.800;9.216;2023-03-14T10:36:05;15.50;55.80
610;DHT22;292;48.800;9.216;2023-03-14T10:38:35;15.50;55.40
610;DHT22;292;48.800;9.216;2023-03-14T10:41:15;15.50;55.20
610;DHT22;292;48.800;9.216;2023-03-14T10:43:43;15.50;54.90
610;DHT22;292;48.800;9.216;2023-03-14T10:46:15;15.50;54.80
610;DHT22;292;48.800;9.216;2023-03-14T10:48:44;15.50;54.80
610;DHT22;292;48.800;9.216;2023-03-14T10:51:19;15.50;54.60
610;DHT22;292;48.800;9.216;2023-03-14T10:53:56;15.60;54.60
610;DHT22;292;48.800;9.216;2023-03-14T10:56:25;15.60;54.50
610;DHT22;292;48.800;9.216;2023-03-14T10:58:56;15.50;54.40
610;DHT22;292;48.800;9.216;2023-03-14T11:01:35;15.50;54.40
610;DHT22;292;48.800;9.216;2023-03-14T11:04:15;15.40;54.50
610;DHT22;292;48.800;9.216;2023-03-14T11:06:52;15.30;54.90
610;DHT22;292;48.800;9.216;2023-03-14T11:09:25;15.30;55.20
610;DHT22;292;48.800;9.216;2023-03-14T11:11:58;15.30;55.40
610;DHT22;292;48.800;9.216;2023-03-14T11:14:32;15.30;55.70
610;DHT22;292;48.800;9.216;2023-03-14T11:17:04;15.20;56.10
610;DHT22;292;48.800;9.216;2023-03-14T11:20:04;15.10;56.40
610;DHT22;292;48.800;9.216;2023-03-14T11:22:43;15.00;56.90
610;DHT22;292;48.800;9.216;2023-03-14T11:25:18;14.90;57.30
610;DHT22;292;48.800;9.216;2023-03-14T11:27:58;14.80;58.20
610;DHT22;292;48.800;9.216;2023-03-14T11:30:34;14.80;58.90
610;DHT22;292;48.800;9.216;2023-03-14T11:33:07;14.70;59.80
610;DHT22;292;48.800;9.216;2023-03-14T11:35:42;14.60;60.70
610;DHT22;292;48.800;9.216;2023-03-14T11:38:19;14.50;60.80
610;DHT22;292;48.800;9.216;2023-03-14T11:40:52;14.40;61.00
610;DHT22;292;48.800;9.216;2023-03-14T11:43:26;14.30;61.40
610;DHT22;292;48.800;9.216;2023-03-14T11:45:58;14.30;62.00
610;DHT22;292;48.800;9.216;2023-03-14T11:48:35;14.20;62.30
610;DHT22;292;48.800;9.216;2023-03-14T11:51:11;14.20;62.40
610;DHT22;292;48.800;9.216;2023-03-14T11:53:47;14.10;62.40
610;DHT22;292;48.800;9.216;2023-03-14T11:56:22;14.10;62.10
610;DHT22;292;48.800;9.216;2023-03-14T11:58:57;14.00;62.10
610;DHT22;292;48.800;9.216;2023-03-14T12:01:33;14.00;62.40
610;DHT22;292;48.800;9.216;2023-03-14T12:04:07;13.90;63.00
610;DHT22;292;48.800;9.216;2023-03-14T12:06:46;13.90;63.60
610;DHT22;292;48.800;9.216;2023-03-14T12:09:15;13.80;64.10
610;DHT22;292;48.800;9.216;2023-03-14T12:11:48;13.80;64.40
610;DHT22;292;48.800;9.216;2023-03-14T12:14:26;13.80;64.40
610;DHT22;292;48.800;9.216;2023-03-14T12:35:40;13.70;65.30
610;DHT22;292;48.800;9.216;2023-03-14T12:44:49;13.70;61.70
610;DHT22;292;48.800;9.216;2023-03-14T13:03:01;13.20;52.40
610;DHT22;292;48.800;9.216;2023-03-14T13:05:35;13.20;50.80
610;DHT22;292;48.800;9.216;2023-03-14T13:27:16;12.80;48.40
610;DHT22;292;48.800;9.216;2023-03-14T13:29:44;12.70;48.00
610;DHT22;292;48.800;9.216;2023-03-14T13:32:53;12.60;47.80
610;DHT22;292;48.800;9.216;2023-03-14T13:35:22;12.60;47.40
610;DHT22;292;48.800;9.216;2023-03-14T13:37:59;12.50;47.00
610;DHT22;292;48.800;9.216;2023-03-14T13:40:31;12.40;46.80
610;DHT22;292;48.800;9.216;2023-03-14T13:43:14;12.30;46.00
610;DHT22;292;48.800;9.216;2023-03-14T13:45:47;12.20;45.80
610;DHT22;292;48.800;9.216;2023-03-14T13:48:17;12.20;45.80
610;DHT22;292;48.800;9.216;2023-03-14T13:51:01;12.10;46.00
610;DHT22;292;48.800;9.216;2023-03-14T13:53:33;12.10;46.20
610;DHT22;292;48.800;9.216;2023-03-14T13:56:11;12.10;46.50
610;DHT22;292;48.800;9.216;2023-03-14T13:58:57;12.20;46.20
610;DHT22;292;48.800;9.216;2023-03-14T14:01:35;12.20;46.50
610;DHT22;292;48.800;9.216;2023-03-14T14:24:32;12.00;40.50
610;DHT22;292;48.800;9.216;2023-03-14T14:27:03;11.90;40.20
610;DHT22;292;48.800;9.216;2023-03-14T14:29:57;11.80;40.50
610;DHT22;292;48.800;9.216;2023-03-14T14:32:33;11.70;40.40
610;DHT22;292;48.800;9.216;2023-03-14T14:35:08;11.70;40.80
610;DHT22;292;48.800;9.216;2023-03-14T14:37:42;11.60;40.60
610;DHT22;292;48.800;9.216;2023-03-14T14:40:17;11.60;40.60
610;DHT22;292;48.800;9.216;2023-03-14T14:42:46;11.60;40.80
610;DHT22;292;48.800;9.216;2023-03-14T14:45:14;11.50;40.90
610;DHT22;292;48.800;9.216;2023-03-14T14:48:10;11.50;41.20
610;DHT22;292;48.800;9.216;2023-03-14T14:50:55;11.50;41.20
610;DHT22;292;48.800;9.216;2023-03-14T15:00:40;11.40;41.70
610;DHT22;292;48.800;9.216;2023-03-14T15:09:47;11.30;41.80
610;DHT22;292;48.800;9.216;2023-03-14T15:12:15;11.30;42.10
610;DHT22;292;48.800;9.216;2023-03-14T15:14:42;11.40;42.40
610;DHT22;292;48.800;9.216;2023-03-14T15:17:13;11.40;42.50
610;DHT22;292;48.800;9.216;2023-03-14T15:19:42;11.50;42.10
610;DHT22;292;48.800;9.216;2023-03-14T15:22:12;11.50;42.10
610;DHT22;292;48.800;9.216;2023-03-14T15:24:40;11.60;42.20
610;DHT22;292;48.800;9.216;2023-03-14T15:27:12;11.60;42.00
610;DHT22;292;48.800;9.216;2023-03-14T15:29:39;11.70;42.10
610;DHT22;292;48.800;9.216;2023-03-14T15:32:12;11.80;42.20
610;DHT22;292;48.800;9.216;2023-03-14T15:34:39;11.90;41.70
610;DHT22;292;48.800;9.216;2023-03-14T15:37:10;12.00;41.70
610;DHT22;292;48.800;9.216;2023-03-14T15:39:42;12.00;41.70
610;DHT22;292;48.800;9.216;2023-03-14T15:42:09;12.00;41.80
610;DHT22;292;48.800;9.216;2023-03-14T15:44:43;12.10;41.70
610;DHT22;292;48.800;9.216;2023-03-14T15:47:17;12.10;42.00
610;DHT22;292;48.800;9.216;2023-03-14T15:49:44;12.20;42.00
610;DHT22;292;48.800;9.216;2023-03-14T15:52:16;12.20;41.80
610;DHT22;292;48.800;9.216;2023-03-14T15:58:11;12.20;42.10
610;DHT22;292;48.800;9.216;2023-03-14T16:00:41;12.30;42.10
610;DHT22;292;48.800;9.216;2023-03-14T16:06:29;12.30;41.80
610;DHT22;292;48.800;9.216;2023-03-14T16:09:03;12.30;42.10
610;DHT22;292;48.800;9.216;2023-03-14T16:11:30;12.40;42.50
610;DHT22;292;48.800;9.216;2023-03-14T16:13:59;12.40;42.50
610;DHT22;292;48.800;9.216;2023-03-14T16:16:44;12.40;42.00
610;DHT22;292;48.800;9.216;2023-03-14T16:30:59;12.10;42.40
610;DHT22;292;48.800;9.216;2023-03-14T16:33:29;12.00;42.60
610;DHT22;292;48.800;9.216;2023-03-14T16:35:58;12.00;42.80
610;DHT22;292;48.800;9.216;2023-03-14T16:38:33;11.90;43.00
610;DHT22;292;48.800;9.216;2023-03-14T16:41:06;11.90;43.20
610;DHT22;292;48.800;9.216;2023-03-14T16:43:34;11.90;43.40
610;DHT22;292;48.800;9.216;2023-03-14T16:46:05;11.90;43.60
610;DHT22;292;48.800;9.216;2023-03-14T16:48:33;11.80;43.40
610;DHT22;292;48.800;9.216;2023-03-14T16:51:00;11.80;43.70
610;DHT22;292;48.800;9.216;2023-03-14T16:53:27;11.80;44.00
610;DHT22;292;48.800;9.216;2023-03-14T16:55:55;11.80;44.10
610;DHT22;292;48.800;9.216;2023-03-14T16:58:22;11.80;44.20
610;DHT22;292;48.800;9.216;2023-03-14T17:00:50;11.80;44.20
610;DHT22;292;48.800;9.216;2023-03-14T17:03:18;11.70;44.20
610;DHT22;292;48.800;9.216;2023-03-14T17:05:45;11.70;44.20
610;DHT22;292;48.800;9.216;2023-03-14T17:08:17;11.70;44.50
610;DHT22;292;48.800;9.216;2023-03-14T17:10:44;11.60;44.60
610;DHT22;292;48.800;9.216;2023-03-14T17:13:12;11.60;44.80
610;DHT22;292;48.800;9.216;2023-03-14T17:15:44;11.60;45.00
610;DHT22;292;48.800;9.216;2023-03-14T17:18:24;11.60;45.20
610;DHT22;292;48.800;9.216;2023-03-14T17:42:56;10.10;56.40
610;DHT22;292;48.800;9.216;2023-03-14T17:45:23;10.00;56.90
610;DHT22;292;48.800;9.216;2023-03-14T17:47:50;10.00;57.20
610;DHT22;292;48.800;9.216;2023-03-14T17:50:21;9.90;57.60
610;DHT22;292;48.800;9.216;2023-03-14T17:52:59;9.90;58.00
610;DHT22;292;48.800;9.216;2023-03-14T17:55:26;9.80;58.10
610;DHT22;292;48.800;9.216;2023-03-14T17:58:05;9.80;58.40
610;DHT22;292;48.800;9.216;2023-03-14T18:31:40;9.50;62.40
610;DHT22;292;48.800;9.216;2023-03-14T18:34:08;9.50;63.00
610;DHT22;292;48.800;9.216;2023-03-14T18:36:37;9.50;63.40
610;DHT22;292;48.800;9.216;2023-03-14T18:39:06;9.40;64.00
610;DHT22;292;48.800;9.216;2023-03-14T18:43:29;9.40;64.00
610;DHT22;292;48.800;9.216;2023-03-14T18:45:07;9.40;64.10
610;DHT22;292;48.800;9.216;2023-03-14T18:47:36;9.30;64.30
610;DHT22;292;48.800;9.216;2023-03-14T18:50:03;9.20;64.70
610;DHT22;292;48.800;9.216;2023-03-14T18:52:30;9.20;65.00
610;DHT22;292;48.800;9.216;2023-03-14T18:54:58;9.20;65.30
610;DHT22;292;48.800;9.216;2023-03-14T18:57:25;9.10;65.60
610;DHT22;292;48.800;9.216;2023-03-14T18:59:52;9.10;65.60
610;DHT22;292;48.800;9.216;2023-03-14T19:02:23;9.10;65.40
610;DHT22;292;48.800;9.216;2023-03-14T19:04:52;9.10;64.90
610;DHT22;292;48.800;9.216;2023-03-14T19:07:19;9.10;64.40
610;DHT22;292;48.800;9.216;2023-03-14T19:09:48;9.00;63.80
610;DHT22;292;48.800;9.216;2023-03-14T19:12:15;9.00;63.70
610;DHT22;292;48.800;9.216;2023-03-14T19:14:43;9.00;63.40
610;DHT22;292;48.800;9.216;2023-03-14T19:17:10;9.00;63.00
610;DHT22;292;48.800;9.216;2023-03-14T19:19:37;9.00;62.80
610;DHT22;292;48.800;9.216;2023-03-14T19:22:05;9.00;62.50
610;DHT22;292;48.800;9.216;2023-03-14T19:24:32;9.00;62.30
610;DHT22;292;48.800;9.216;2023-03-14T19:27:01;9.00;62.10
610;DHT22;292;48.800;9.216;2023-03-14T19:29:28;9.00;62.10
610;DHT22;292;48.800;9.216;2023-03-14T19:31:56;9.00;62.30
610;DHT22;292;48.800;9.216;2023-03-14T19:34:24;9.00;62.10
610;DHT22;292;48.800;9.216;2023-03-14T19:36:54;9.00;62.00
610;DHT22;292;48.800;9.216;2023-03-14T19:39:23;9.00;62.00
610;DHT22;292;48.800;9.216;2023-03-14T19:41:50;9.00;62.00
610;DHT22;292;48.800;9.216;2023-03-14T19:44:24;9.00;61.40
610;DHT22;292;48.800;9.216;2023-03-14T19:46:51;9.00;61.70
610;DHT22;292;48.800;9.216;2023-03-14T19:49:20;9.00;61.70
610;DHT22;292;48.800;9.216;2023-03-14T19:51:48;9.00;61.70
610;DHT22;292;48.800;9.216;2023-03-14T19:54:17;9.00;61.50
610;DHT22;292;48.800;9.216;2023-03-14T19:56:49;9.00;61.50
610;DHT22;292;48.800;9.216;2023-03-14T19:59:17;9.00;61.50
610;DHT22;292;48.800;9.216;2023-03-14T20:01:44;9.00;61.50
610;DHT22;292;48.800;9.216;2023-03-14T20:04:13;9.00;61.70
610;DHT22;292;48.800;9.216;2023-03-14T20:06:41;9.00;61.70
610;DHT22;292;48.800;9.216;2023-03-14T20:09:09;9.10;61.70
610;DHT22;292;48.800;9.216;2023-03-14T20:11:36;9.10;61.70
610;DHT22;292;48.800;9.216;2023-03-14T20:14:07;9.10;61.50
610;DHT22;292;48.800;9.216;2023-03-14T20:16:34;9.10;61.70
610;DHT22;292;48.800;9.216;2023-03-14T20:19:04;9.20;61.70
610;DHT22;292;48.800;9.216;2023-03-14T20:21:32;9.20;61.50
610;DHT22;292;48.800;9.216;2023-03-14T20:23:59;9.20;61.50
610;DHT22;292;48.800;9.216;2023-03-14T20:26:27;9.20;61.50
610;DHT22;292;48.800;9.216;2023-03-14T20:28:54;9.20;61.40
610;DHT22;292;48.800;9.216;2023-03-14T20:31:23;9.20;61.50
610;DHT22;292;48.800;9.216;2023-03-14T20:33:50;9.20;61.40
610;DHT22;292;48.800;9.216;2023-03-14T20:36:17;9.20;61.40
610;DHT22;292;48.800;9.216;2023-03-14T20:38:44;9.20;61.10
610;DHT22;292;48.800;9.216;2023-03-14T20:41:11;9.20;61.10
610;DHT22;292;48.800;9.216;2023-03-14T20:43:38;9.10;61.40
610;DHT22;292;48.800;9.216;2023-03-14T20:46:05;9.20;61.40
610;DHT22;292;48.800;9.216;2023-03-14T20:48:34;9.10;61.40
610;DHT22;292;48.800;9.216;2023-03-14T20:51:05;9.20;61.40
610;DHT22;292;48.800;9.216;2023-03-14T20:53:32;9.10;61.20
610;DHT22;292;48.800;9.216;2023-03-14T20:55:59;9.10;61.20
610;DHT22;292;48.800;9.216;2023-03-14T20:58:26;9.10;61.40
610;DHT22;292;48.800;9.216;2023-03-14T21:00:54;9.10;61.20
610;DHT22;292;48.800;9.216;2023-03-14T21:03:24;9.10;61.20
610;DHT22;292;48.800;9.216;2023-03-14T21:05:53;9.10;61.20
610;DHT22;292;48.800;9.216;2023-03-14T21:08:22;9.10;61.40
610;DHT22;292;48.800;9.216;2023-03-14T21:10:55;9.20;61.40
610;DHT22;292;48.800;9.216;2023-03-14T21:13:44;9.20;61.20
610;DHT22;292;48.800;9.216;2023-03-14T21:16:25;9.20;61.20
610;DHT22;292;48.800;9.216;2023-03-14T21:18:54;9.20;61.10
610;DHT22;292;48.800;9.216;2023-03-14T21:21:28;9.20;61.10
610;DHT22;292;48.800;9.216;2023-03-14T21:23:55;9.20;61.10
610;DHT22;292;48.800;9.216;2023-03-14T21:26:24;9.20;61.00
610;DHT22;292;48.800;9.216;2023-03-14T21:29:05;9.20;60.80
610;DHT22;292;48.800;9.216;2023-03-14T23:31:56;4.50;79.30
610;DHT22;292;48.800;9.216;2023-03-14T23:34:24;4.50;79.40
610;DHT22;292;48.800;9.216;2023-03-14T23:37:05;4.40;79.60
610;DHT22;292;48.800;9.216;2023-03-14T23:39:32;4.40;79.70
610;DHT22;292;48.800;9.216;2023-03-14T23:41:59;4.40;79.90
610;DHT22;292;48.800;9.216;2023-03-14T23:44:47;4.40;79.90
